createdAt,value
2019-04-10T00:04:36.963Z,22.45
2019-04-10T00:09:41.295Z,22.46
2019-04-10T00:14:45.009Z,22.45
2019-04-10T00:19:48.502Z,22.44
2019-04-10T00:24:52.456Z,22.44
2019-04-10T00:29:56.473Z,22.44
2019-04-10T00:35:00.288Z,22.44
2019-04-10T00:40:04.432Z,22.43
2019-04-10T00:45:09.144Z,22.44
2019-04-10T00:50:12.843Z,22.44
2019-04-10T00:55:16.458Z,22.42
2019-04-10T01:00:21.848Z,22.41
2019-04-10T01:05:25.461Z,22.42
2019-04-10T01:10:28.928Z,22.42
2019-04-10T01:15:32.393Z,22.40
2019-04-10T01:20:35.853Z,22.41
2019-04-10T01:25:39.341Z,22.41
2019-04-10T01:30:42.829Z,22.39
2019-04-10T01:35:46.705Z,22.39
2019-04-10T01:40:51.163Z,22.37
2019-04-10T01:45:54.746Z,22.36
2019-04-10T01:50:59.041Z,22.37
2019-04-10T01:56:03.100Z,22.36
2019-04-10T02:01:08.350Z,22.36
2019-04-10T02:06:11.827Z,22.35
2019-04-10T02:11:15.490Z,22.35
2019-04-10T02:16:19.045Z,22.33
2019-04-10T02:21:23.450Z,22.35
2019-04-10T02:26:27.685Z,22.34
2019-04-10T02:31:32.018Z,22.34
2019-04-10T02:36:36.231Z,22.33
2019-04-10T02:41:41.773Z,22.33
2019-04-10T02:46:45.253Z,22.32
2019-04-10T02:51:49.823Z,22.32
2019-04-10T02:56:54.899Z,22.31
2019-04-10T03:02:00.127Z,22.32
2019-04-10T03:07:04.357Z,22.29
2019-04-10T03:12:08.925Z,22.29
2019-04-10T03:17:13.181Z,22.27
2019-04-10T03:22:16.736Z,22.27
2019-04-10T03:27:20.564Z,22.27
2019-04-10T03:32:50.276Z,22.26
2019-04-10T03:37:48.963Z,22.26
2019-04-10T03:42:53.050Z,22.27
2019-04-10T03:47:57.861Z,22.26
2019-04-10T03:53:02.138Z,22.26
2019-04-10T03:58:05.705Z,22.25
2019-04-10T04:03:09.193Z,22.25
2019-04-10T04:08:13.090Z,22.23
2019-04-10T04:13:17.467Z,22.23
2019-04-10T04:18:21.361Z,22.25
2019-04-10T04:23:25.731Z,22.23
2019-04-10T04:28:29.844Z,22.23
2019-04-10T04:33:34.095Z,22.23
2019-04-10T04:38:37.621Z,22.21
2019-04-10T04:43:43.386Z,22.21
2019-04-10T04:48:47.394Z,22.21
2019-04-10T04:53:50.957Z,22.20
2019-04-10T04:58:54.434Z,22.20
2019-04-10T05:03:58.264Z,22.20
2019-04-10T05:09:02.784Z,22.19
2019-04-10T05:14:06.950Z,22.19
2019-04-10T05:19:10.503Z,22.18
2019-04-10T05:24:13.976Z,22.18
2019-04-10T05:29:18.222Z,22.18
2019-04-10T05:34:21.976Z,22.17
2019-04-10T05:39:26.698Z,22.17
2019-04-10T05:44:31.802Z,22.17
2019-04-10T05:49:35.326Z,22.17
2019-04-10T05:54:39.589Z,22.17
2019-04-10T05:59:43.937Z,22.18
2019-04-10T06:04:47.643Z,22.17
2019-04-10T06:09:55.973Z,22.16
2019-04-10T06:14:56.696Z,22.16
2019-04-10T06:20:00.799Z,22.16
2019-04-10T06:25:08.426Z,22.15
2019-04-10T06:30:12.079Z,22.16
2019-04-10T06:35:15.725Z,22.16
2019-04-10T06:40:22.511Z,22.16
2019-04-10T06:45:24.382Z,22.19
2019-04-10T06:50:29.451Z,22.26
2019-04-10T06:55:33.253Z,22.07
2019-04-10T07:00:37.029Z,20.77
2019-04-10T07:05:49.675Z,20.11
2019-04-10T07:10:54.147Z,19.89
2019-04-10T07:15:54.463Z,19.51
2019-04-10T07:20:59.613Z,19.13
2019-04-10T07:26:01.852Z,18.85
2019-04-10T07:31:08.185Z,18.56
2019-04-10T07:36:13.655Z,18.31
2019-04-10T07:41:21.015Z,18.67
2019-04-10T07:46:21.838Z,19.01
2019-04-10T07:51:25.637Z,19.27
2019-04-10T07:56:29.192Z,19.52
2019-04-10T08:01:33.444Z,19.70
2019-04-10T08:06:37.400Z,19.85
2019-04-10T08:11:40.972Z,19.99
2019-04-10T08:16:45.519Z,20.12
2019-04-10T08:21:49.190Z,20.25
2019-04-10T08:26:52.846Z,20.36
2019-04-10T08:31:56.336Z,20.47
2019-04-10T08:36:59.813Z,20.57
2019-04-10T08:42:03.299Z,20.67
2019-04-10T08:47:06.834Z,20.76
2019-04-10T08:52:10.433Z,20.85
2019-04-10T08:57:13.909Z,20.93
2019-04-10T09:02:18.047Z,20.99
2019-04-10T09:07:22.193Z,21.06
2019-04-10T09:12:26.080Z,21.14
2019-04-10T09:17:29.640Z,21.20
2019-04-10T09:22:49.795Z,21.25
2019-04-10T09:27:38.331Z,21.29
2019-04-10T09:32:42.389Z,21.30
2019-04-10T09:37:46.336Z,21.31
2019-04-10T09:42:50.059Z,21.34
2019-04-10T09:47:53.589Z,21.36
2019-04-10T09:52:57.065Z,21.35
2019-04-10T09:58:00.542Z,21.33
2019-04-10T10:03:04.035Z,21.39
2019-04-10T10:08:08.812Z,21.43
2019-04-10T10:13:13.103Z,21.47
2019-04-10T10:18:17.202Z,21.47
2019-04-10T10:23:20.725Z,21.44
2019-04-10T10:28:24.197Z,21.46
2019-04-10T10:33:27.959Z,21.48
2019-04-10T10:38:31.504Z,21.51
2019-04-10T10:43:34.973Z,21.49
2019-04-10T10:48:38.440Z,21.56
2019-04-10T10:53:41.901Z,21.55
2019-04-10T10:58:46.074Z,21.53
2019-04-10T11:03:50.745Z,21.56
2019-04-10T11:08:55.493Z,21.52
2019-04-10T11:13:59.097Z,21.50
2019-04-10T11:19:02.829Z,21.47
2019-04-10T11:24:07.008Z,21.46
2019-04-10T11:29:11.747Z,21.43
2019-04-10T11:34:16.578Z,21.44
2019-04-10T11:39:25.533Z,21.44
2019-04-10T11:44:27.289Z,21.44
2019-04-10T11:49:31.606Z,21.43
2019-04-10T11:54:40.987Z,21.42
2019-04-10T11:59:41.259Z,21.41
2019-04-10T12:04:52.999Z,21.43
2019-04-10T12:14:56.202Z,21.43
2019-04-10T12:20:00.534Z,21.41
2019-04-10T12:25:05.317Z,21.42
2019-04-10T12:30:11.148Z,21.41
2019-04-10T12:35:15.164Z,21.40
2019-04-10T12:40:19.505Z,21.41
2019-04-10T12:45:24.220Z,21.46
2019-04-10T12:50:28.701Z,21.51
2019-04-10T12:55:32.534Z,21.54
2019-04-10T13:00:36.176Z,21.57
2019-04-10T13:05:39.656Z,21.61
2019-04-10T13:10:45.474Z,21.62
2019-04-10T13:15:49.781Z,21.66
2019-04-10T13:20:53.700Z,21.70
2019-04-10T13:26:01.747Z,21.74
2019-04-10T13:31:03.487Z,21.80
2019-04-10T13:36:07.272Z,21.85
2019-04-10T13:41:10.770Z,21.91
2019-04-10T13:46:14.228Z,21.98
2019-04-10T13:51:17.694Z,22.03
2019-04-10T13:56:21.320Z,22.07
2019-04-10T14:01:29.401Z,22.08
2019-04-10T14:06:33.786Z,22.10
2019-04-10T14:11:37.513Z,22.12
2019-04-10T14:16:41.220Z,22.14
2019-04-10T14:21:45.607Z,22.16
2019-04-10T14:26:52.757Z,22.19
2019-04-10T14:31:58.638Z,22.20
2019-04-10T14:37:03.214Z,22.21
2019-04-10T14:42:06.781Z,22.24
2019-04-10T14:47:11.436Z,22.25
2019-04-10T14:52:15.655Z,22.28
2019-04-10T14:57:19.120Z,22.32
2019-04-10T15:02:22.583Z,22.32
2019-04-10T15:07:26.811Z,22.35
2019-04-10T15:12:30.381Z,22.35
2019-04-10T15:17:33.973Z,22.35
2019-04-10T15:22:37.900Z,22.34
2019-04-10T15:27:41.698Z,22.34
2019-04-10T15:32:45.441Z,22.34
2019-04-10T15:37:49.258Z,22.36
2019-04-10T15:42:52.735Z,22.36
2019-04-10T15:47:58.689Z,22.39
2019-04-10T15:53:02.162Z,22.42
2019-04-10T15:58:06.699Z,22.44
2019-04-10T16:03:11.281Z,22.48
2019-04-10T16:08:16.194Z,22.43
2019-04-10T16:13:38.696Z,22.39
2019-04-10T16:18:42.454Z,22.39
2019-04-10T16:23:47.729Z,22.37
2019-04-10T16:28:51.571Z,22.36
2019-04-10T16:33:55.119Z,22.35
2019-04-10T16:38:58.565Z,22.35
2019-04-10T16:44:02.527Z,22.34
2019-04-10T16:49:06.572Z,22.32
2019-04-10T16:54:10.490Z,22.30
2019-04-10T16:59:14.252Z,22.31
2019-04-10T17:04:18.912Z,22.34
2019-04-10T17:09:24.827Z,22.32
2019-04-10T17:14:29.322Z,22.32
2019-04-10T17:19:44.695Z,22.30
2019-04-10T17:24:38.073Z,22.31
2019-04-10T17:29:41.534Z,22.30
2019-04-10T17:34:45.205Z,22.30
2019-04-10T17:39:49.431Z,22.27
2019-04-10T17:44:53.993Z,22.26
2019-04-10T17:49:58.086Z,22.26
2019-04-10T17:55:01.631Z,22.25
2019-04-10T18:00:22.956Z,22.24
2019-04-10T18:05:26.655Z,22.21
2019-04-10T18:10:41.181Z,22.20
2019-04-10T18:15:35.838Z,22.23
2019-04-10T18:20:40.135Z,22.23
2019-04-10T18:25:44.451Z,22.23
2019-04-10T18:30:48.226Z,22.22
2019-04-10T18:35:51.796Z,22.22
2019-04-10T18:41:00.551Z,22.21
2019-04-10T18:46:10.246Z,22.22
2019-04-10T18:51:07.921Z,22.21
2019-04-10T18:56:11.191Z,22.21
2019-04-10T19:01:19.382Z,22.21
2019-04-10T19:06:34.297Z,22.21
2019-04-10T19:11:38.395Z,22.21
2019-04-10T19:16:42.173Z,22.20
2019-04-10T19:21:46.120Z,22.21
2019-04-10T19:26:49.712Z,22.21
2019-04-10T19:31:54.817Z,22.21
2019-04-10T19:37:00.540Z,22.22
2019-04-10T19:42:05.054Z,22.21
2019-04-10T19:47:08.519Z,22.21
2019-04-10T19:52:12.032Z,22.21
2019-04-10T19:57:15.446Z,22.20
2019-04-10T20:02:19.110Z,22.20
2019-04-10T20:07:22.847Z,22.18
2019-04-10T20:12:26.751Z,22.19
2019-04-10T20:17:30.303Z,22.17
2019-04-10T20:22:33.813Z,22.17
2019-04-10T20:27:38.279Z,22.16
2019-04-10T20:32:42.043Z,22.15
2019-04-10T20:37:45.506Z,22.14
2019-04-10T20:42:48.969Z,22.14
2019-04-10T20:47:52.436Z,22.13
2019-04-10T20:52:55.897Z,22.13
2019-04-10T20:57:59.678Z,22.14
2019-04-10T21:03:03.467Z,22.10
2019-04-10T21:08:07.001Z,22.08
2019-04-10T21:13:10.708Z,22.05
2019-04-10T21:18:15.239Z,22.04
2019-04-10T21:23:19.402Z,22.01
2019-04-10T21:28:22.882Z,22.01
2019-04-10T21:33:43.273Z,22.00
2019-04-10T21:38:48.979Z,21.98
2019-04-10T21:43:52.272Z,21.97
2019-04-10T21:48:57.363Z,21.95
2019-04-10T21:54:02.119Z,21.95
2019-04-10T21:59:05.758Z,21.93
2019-04-10T22:04:10.262Z,21.92
2019-04-10T22:09:16.610Z,21.91
2019-04-10T22:14:21.489Z,21.90
2019-04-10T22:19:26.220Z,21.89
2019-04-10T22:24:29.945Z,21.88
2019-04-10T22:29:33.425Z,21.89
2019-04-10T22:34:36.894Z,21.88
2019-04-10T22:39:40.371Z,21.87
2019-04-10T22:44:46.463Z,21.87
2019-04-10T22:49:49.296Z,21.87
2019-04-10T22:54:53.178Z,21.86
2019-04-10T22:59:57.424Z,21.85
2019-04-10T23:05:01.985Z,21.83
2019-04-10T23:15:15.412Z,21.85
2019-04-10T23:20:18.981Z,21.84
2019-04-10T23:25:22.560Z,21.83
2019-04-10T23:30:26.716Z,21.83
2019-04-10T23:35:30.275Z,21.83
2019-04-10T23:40:34.839Z,21.83
2019-04-10T23:45:38.360Z,21.83
2019-04-10T23:50:42.782Z,21.82
2019-04-10T23:55:46.280Z,21.81
